createdAt,value
2023-11-09T06:58:46.628Z,101160.21
2023-11-09T07:01:16.074Z,101163.27
2023-11-09T07:03:45.836Z,101166.29
2023-11-09T07:06:15.136Z,101166.96
2023-11-09T07:08:44.602Z,101169.31
2023-11-09T07:11:13.812Z,101170.84
2023-11-09T07:13:43.021Z,101180.26
2023-11-09T07:16:12.487Z,101188.98
2023-11-09T07:18:41.967Z,101191.52
2023-11-09T07:21:12.474Z,101190.04
2023-11-09T07:23:43.430Z,101193.08
2023-11-09T07:26:15.351Z,101193.92
2023-11-09T07:28:44.693Z,101193.63
2023-11-09T07:31:14.313Z,101196.23
2023-11-09T07:33:45.759Z,101195.63
2023-11-09T07:36:16.460Z,101199.94
2023-11-09T07:38:45.950Z,101193.52
2023-11-09T07:41:16.199Z,101193.81
2023-11-09T07:43:45.574Z,101194.77
2023-11-09T07:46:14.953Z,101195.47
2023-11-09T07:48:44.316Z,101198.66
2023-11-09T07:51:14.915Z,101204.02
2023-11-09T07:53:44.182Z,101201.79
2023-11-09T07:56:13.484Z,101201.30
2023-11-09T07:58:44.674Z,101207.23
2023-11-09T08:01:15.068Z,101213.71
2023-11-09T08:03:44.382Z,101219.55
2023-11-09T08:06:15.732Z,101221.34
2023-11-09T08:08:48.618Z,101221.27
2023-11-09T08:11:18.039Z,101216.52
2023-11-09T08:13:48.167Z,101216.66
2023-11-09T08:16:17.534Z,101218.80
2023-11-09T08:18:47.721Z,101228.67
2023-11-09T08:21:17.294Z,101231.09
2023-11-09T08:23:47.238Z,101234.95
2023-11-09T08:26:17.946Z,101239.92
2023-11-09T08:28:47.569Z,101244.84
2023-11-09T08:31:16.953Z,101244.45
2023-11-09T08:33:47.154Z,101241.66
2023-11-09T08:36:16.462Z,101249.25
2023-11-09T08:38:45.756Z,101250.04
2023-11-09T08:41:17.084Z,101253.71
2023-11-09T08:43:51.031Z,101254.81
2023-11-09T08:46:20.519Z,101260.48
2023-11-09T08:48:50.076Z,101257.58
2023-11-09T08:51:20.354Z,101261.48
2023-11-09T08:53:51.945Z,101261.58
2023-11-09T08:56:23.115Z,101259.20
2023-11-09T08:58:53.100Z,101261.29
2023-11-09T09:01:50.457Z,101266.10
2023-11-09T09:04:20.146Z,101269.45
2023-11-09T09:06:49.538Z,101263.38
2023-11-09T09:09:19.454Z,101264.64
2023-11-09T09:11:49.523Z,101265.39
2023-11-09T09:14:19.897Z,101258.83
2023-11-09T09:16:49.163Z,101257.67
2023-11-09T09:19:19.303Z,101259.29
2023-11-09T09:21:50.367Z,101262.05
2023-11-09T09:24:20.482Z,101259.95
2023-11-09T09:26:49.888Z,101256.71
2023-11-09T09:29:19.387Z,101263.38
2023-11-09T09:31:49.278Z,101261.57
2023-11-09T09:34:24.987Z,101261.52
2023-11-09T09:36:56.630Z,101262.13
2023-11-09T09:39:26.944Z,101260.97
2023-11-09T09:42:00.388Z,101261.95
2023-11-09T09:44:31.680Z,101264.13
2023-11-09T09:47:03.109Z,101258.35
2023-11-09T09:49:32.851Z,101260.20
2023-11-09T09:52:03.789Z,101260.09
2023-11-09T09:54:34.208Z,101266.05
2023-11-09T09:57:04.696Z,101263.60
2023-11-09T09:59:35.528Z,101263.98
2023-11-09T10:02:10.016Z,101264.98
2023-11-09T10:04:40.017Z,101259.98
2023-11-09T10:07:10.364Z,101256.40
2023-11-09T10:09:39.837Z,101258.57
2023-11-09T10:12:10.963Z,101257.96
2023-11-09T10:14:40.804Z,101259.27
2023-11-09T10:17:13.302Z,101254.87
2023-11-09T10:19:43.800Z,101256.16
2023-11-09T10:22:14.045Z,101258.38
2023-11-09T10:24:43.532Z,101261.18
2023-11-09T10:27:12.871Z,101255.91
2023-11-09T10:29:42.178Z,101252.70
2023-11-09T10:32:23.997Z,101252.80
2023-11-09T10:34:54.346Z,101253.92
2023-11-09T10:37:23.713Z,101249.95
2023-11-09T10:39:56.555Z,101247.92
2023-11-09T10:42:27.505Z,101244.15
2023-11-09T10:45:03.103Z,101245.08
2023-11-09T10:47:34.561Z,101245.71
2023-11-09T10:50:09.000Z,101241.34
2023-11-09T10:52:38.262Z,101237.50
2023-11-09T10:55:11.034Z,101241.32
2023-11-09T10:57:44.668Z,101234.45
2023-11-09T11:00:27.294Z,101234.02
2023-11-09T11:03:08.940Z,101231.18
2023-11-09T11:05:42.316Z,101230.48
2023-11-09T11:08:27.905Z,101229.14
2023-11-09T11:11:02.117Z,101232.52
2023-11-09T11:13:33.426Z,101235.48
2023-11-09T11:16:21.689Z,101225.40
2023-11-09T11:19:21.466Z,101228.77
2023-11-09T11:22:02.708Z,101230.60
2023-11-09T11:24:56.801Z,101227.62
2023-11-09T11:27:36.198Z,101225.46
2023-11-09T11:30:26.291Z,101224.75
2023-11-09T11:33:00.895Z,101221.57
2023-11-09T11:35:41.008Z,101223.98
2023-11-09T11:38:16.920Z,101224.55
2023-11-09T11:40:48.371Z,101222.28
2023-11-09T11:43:18.326Z,101218.50
2023-11-09T11:45:50.110Z,101215.61
2023-11-09T11:48:26.682Z,101212.34
2023-11-09T11:50:56.965Z,101210.29
2023-11-09T11:53:32.647Z,101211.67
2023-11-09T11:56:13.451Z,101211.38
2023-11-09T11:58:54.190Z,101213.77
2023-11-09T12:01:33.643Z,101210.85
2023-11-09T12:04:08.158Z,101208.27
2023-11-09T12:06:39.461Z,101203.48
2023-11-09T12:09:12.959Z,101201.23
2023-11-09T12:11:51.196Z,101206.25
2023-11-09T12:14:21.680Z,101207.09
2023-11-09T12:16:52.453Z,101203.60
2023-11-09T12:19:22.136Z,101200.58
2023-11-09T12:21:51.357Z,101202.95
2023-11-09T12:24:24.622Z,101201.45
2023-11-09T12:27:11.094Z,101199.41
2023-11-09T12:29:43.656Z,101201.71
2023-11-09T12:32:14.467Z,101194.92
2023-11-09T12:34:44.578Z,101199.98
2023-11-09T12:37:16.727Z,101192.46
2023-11-09T12:39:49.681Z,101190.13
2023-11-09T12:42:26.551Z,101186.62
2023-11-09T12:44:57.982Z,101191.70
2023-11-09T12:47:31.866Z,101188.77
2023-11-09T12:50:04.892Z,101192.10
2023-11-09T12:52:38.738Z,101188.05
2023-11-09T12:55:09.739Z,101183.85
2023-11-09T12:57:43.935Z,101184.00
2023-11-09T13:00:31.910Z,101184.88
2023-11-09T13:03:04.910Z,101181.35
2023-11-09T13:05:38.900Z,101183.74
2023-11-09T13:08:10.934Z,101183.71
2023-11-09T13:10:45.474Z,101185.20
2023-11-09T13:13:23.309Z,101183.00
2023-11-09T13:15:53.126Z,101179.95
2023-11-09T13:18:29.516Z,101175.89
2023-11-09T13:21:00.958Z,101174.89
2023-11-09T13:23:34.365Z,101173.19
2023-11-09T13:26:07.047Z,101173.95
2023-11-09T13:28:36.650Z,101175.56
2023-11-09T13:31:08.562Z,101178.09
2023-11-09T13:33:38.881Z,101178.61
2023-11-09T13:36:11.929Z,101187.44
2023-11-09T13:38:58.343Z,101191.59
2023-11-09T13:41:43.226Z,101194.36
2023-11-09T13:44:13.796Z,101199.95
2023-11-09T13:46:45.047Z,101198.33
2023-11-09T13:49:17.332Z,101193.80
2023-11-09T13:52:03.959Z,101192.30
2023-11-09T13:54:37.905Z,101192.05
2023-11-09T13:57:15.149Z,101193.90
2023-11-09T13:59:56.608Z,101193.29
2023-11-09T14:02:32.093Z,101193.60
2023-11-09T14:05:11.299Z,101188.90
2023-11-09T14:07:44.534Z,101187.32
2023-11-09T14:10:16.460Z,101192.48
2023-11-09T14:12:53.760Z,101190.94
2023-11-09T14:15:29.316Z,101193.09
2023-11-09T14:18:54.011Z,101196.15
2023-11-09T14:21:26.147Z,101197.39
2023-11-09T14:23:56.376Z,101197.06
2023-11-09T14:26:29.048Z,101199.99
2023-11-09T14:29:09.814Z,101196.35
2023-11-09T14:31:40.064Z,101192.23
2023-11-09T14:34:15.194Z,101190.98
2023-11-09T14:36:49.731Z,101189.36
2023-11-09T14:39:41.383Z,101191.48
2023-11-09T14:42:11.347Z,101188.49
2023-11-09T14:44:42.579Z,101188.42
2023-11-09T14:47:12.502Z,101185.92
2023-11-09T14:49:46.873Z,101187.52
2023-11-09T14:52:22.350Z,101185.33
2023-11-09T14:54:51.875Z,101186.48
2023-11-09T14:57:21.277Z,101185.40
2023-11-09T14:59:50.662Z,101190.27
2023-11-09T15:02:22.013Z,101185.34
2023-11-09T15:04:57.204Z,101184.84
2023-11-09T15:07:26.905Z,101184.04
2023-11-09T15:10:01.475Z,101179.73
2023-11-09T15:12:35.067Z,101183.18
2023-11-09T15:15:07.826Z,101179.33
2023-11-09T15:17:38.671Z,101177.58
2023-11-09T15:20:20.214Z,101177.27
2023-11-09T15:22:57.829Z,101175.70
2023-11-09T15:25:32.299Z,101173.94
2023-11-09T15:28:05.354Z,101177.58
2023-11-09T15:30:35.646Z,101173.77
2023-11-09T15:33:06.670Z,101173.49
2023-11-09T15:35:36.182Z,101176.30
2023-11-09T15:38:05.772Z,101177.33
2023-11-09T15:41:11.069Z,101176.30
2023-11-09T15:43:24.586Z,101182.54
2023-11-09T15:45:56.739Z,101180.86
2023-11-09T15:48:28.337Z,101180.98
2023-11-09T15:50:59.028Z,101185.13
2023-11-09T15:53:28.939Z,101190.27
2023-11-09T15:55:58.248Z,101192.34
2023-11-09T15:58:27.604Z,101196.21
2023-11-09T16:00:57.597Z,101197.06
2023-11-09T16:03:27.115Z,101199.27
2023-11-09T16:05:56.604Z,101198.77
2023-11-09T16:08:26.225Z,101201.27
2023-11-09T16:10:56.016Z,101203.92
2023-11-09T16:13:26.069Z,101207.71
2023-11-09T16:15:55.767Z,101212.09
2023-11-09T16:18:26.881Z,101211.23
2023-11-09T16:20:56.164Z,101214.11
2023-11-09T16:23:26.385Z,101218.19
2023-11-09T16:25:55.881Z,101221.27
2023-11-09T16:28:25.496Z,101225.80
2023-11-09T16:31:03.890Z,101229.61
2023-11-09T16:33:34.479Z,101228.91
2023-11-09T16:36:04.053Z,101233.80
2023-11-09T16:38:33.964Z,101233.85
2023-11-09T16:41:05.998Z,101238.79
2023-11-09T16:43:36.159Z,101235.20
2023-11-09T16:46:07.290Z,101234.73
2023-11-09T16:48:40.227Z,101234.82
2023-11-09T16:51:11.816Z,101238.24
2023-11-09T16:53:41.446Z,101239.83
2023-11-09T16:56:10.976Z,101240.36
2023-11-09T16:58:40.615Z,101236.54
2023-11-09T17:01:10.024Z,101239.01
2023-11-09T17:03:39.371Z,101236.54
2023-11-09T17:06:09.021Z,101237.63
2023-11-09T17:08:40.153Z,101238.89
2023-11-09T17:11:09.681Z,101237.56
2023-11-09T17:13:39.468Z,101233.90
2023-11-09T17:16:10.225Z,101232.18
2023-11-09T17:18:39.851Z,101232.31
2023-11-09T17:21:09.290Z,101235.96
2023-11-09T17:23:38.572Z,101231.16
2023-11-09T17:26:07.998Z,101230.66
2023-11-09T17:28:37.413Z,101222.64
2023-11-09T17:31:06.794Z,101218.46
2023-11-09T17:33:37.595Z,101219.55
2023-11-09T17:36:08.699Z,101222.21
2023-11-09T17:38:38.734Z,101223.58
2023-11-09T17:41:08.308Z,101220.40
2023-11-09T17:43:38.548Z,101214.30
2023-11-09T17:46:08.062Z,101211.16
2023-11-09T17:48:37.529Z,101210.91
2023-11-09T17:51:07.168Z,101211.61
2023-11-09T17:53:36.536Z,101211.36
2023-11-09T17:56:06.379Z,101211.60
2023-11-09T17:58:37.024Z,101214.02
2023-11-09T18:01:07.748Z,101216.39
2023-11-09T18:03:37.749Z,101215.60
2023-11-09T18:06:11.883Z,101218.23
2023-11-09T18:08:41.667Z,101215.28
2023-11-09T18:11:10.966Z,101219.75
2023-11-09T18:13:40.533Z,101221.50
2023-11-09T18:16:11.437Z,101223.46
2023-11-09T18:18:41.118Z,101222.50
2023-11-09T18:21:12.285Z,101223.63
2023-11-09T18:23:42.005Z,101225.50
2023-11-09T18:26:14.963Z,101223.89
2023-11-09T18:28:45.952Z,101223.59
2023-11-09T18:31:20.196Z,101222.53
2023-11-09T18:33:50.662Z,101225.27
2023-11-09T18:36:20.370Z,101223.38
2023-11-09T18:38:50.362Z,101224.56
2023-11-09T18:41:21.962Z,101223.70
2023-11-09T18:43:52.864Z,101220.00
2023-11-09T18:46:22.890Z,101216.80
2023-11-09T18:48:52.691Z,101216.90
2023-11-09T18:51:22.359Z,101214.66
2023-11-09T18:53:51.810Z,101216.98
2023-11-09T18:56:21.211Z,101217.66
2023-11-09T18:58:51.230Z,101218.30
2023-11-09T19:01:20.955Z,101221.08
2023-11-09T19:06:26.721Z,101222.54
2023-11-09T19:08:59.362Z,101220.45
2023-11-09T19:11:30.903Z,101218.41
2023-11-09T19:14:00.173Z,101215.80
2023-11-09T19:16:29.629Z,101215.52
2023-11-09T19:18:59.154Z,101219.82
2023-11-09T19:24:03.010Z,101224.19
2023-11-09T19:26:34.268Z,101226.08
2023-11-09T19:29:04.694Z,101226.34
2023-11-09T19:31:37.078Z,101223.93
2023-11-09T19:34:09.336Z,101222.13
2023-11-09T19:36:42.390Z,101223.06
2023-11-09T19:39:13.989Z,101225.26
2023-11-09T19:41:46.804Z,101227.05
2023-11-09T19:44:16.340Z,101231.14
2023-11-09T19:46:46.072Z,101236.49
2023-11-09T19:49:17.745Z,101230.11
2023-11-09T19:51:47.585Z,101227.13
2023-11-09T19:54:17.688Z,101225.20
2023-11-09T19:56:47.718Z,101225.70
2023-11-09T19:59:16.925Z,101226.15
2023-11-09T20:01:46.487Z,101220.69
2023-11-09T20:04:17.923Z,101221.14
2023-11-09T20:06:52.349Z,101221.20
2023-11-09T20:09:23.235Z,101227.02
2023-11-09T20:11:52.677Z,101226.39
2023-11-09T20:14:21.978Z,101222.02
2023-11-09T20:16:52.397Z,101214.83
2023-11-09T20:19:21.695Z,101213.29
2023-11-09T20:21:54.632Z,101212.15
2023-11-09T20:24:24.120Z,101207.69
2023-11-09T20:26:58.387Z,101201.78
2023-11-09T20:29:28.333Z,101202.95
2023-11-09T20:32:01.786Z,101206.26
2023-11-09T20:34:32.160Z,101207.27
2023-11-09T20:37:01.598Z,101205.20
2023-11-09T20:39:32.233Z,101202.83
2023-11-09T20:42:02.885Z,101204.56
2023-11-09T20:44:32.174Z,101200.60
2023-11-09T20:47:03.875Z,101198.59
2023-11-09T20:49:33.890Z,101198.36
2023-11-09T20:52:04.306Z,101197.63
2023-11-09T20:54:36.212Z,101198.63
2023-11-09T20:57:06.232Z,101199.35
2023-11-09T20:59:35.594Z,101198.66
2023-11-09T21:02:05.382Z,101200.45
2023-11-09T21:04:35.933Z,101200.27
2023-11-09T21:07:08.335Z,101200.71
2023-11-09T21:09:38.135Z,101197.52
2023-11-09T21:12:09.508Z,101191.64
2023-11-09T21:14:38.984Z,101191.55
2023-11-09T21:17:10.332Z,101191.00
2023-11-09T21:19:39.540Z,101190.81
2023-11-09T21:22:14.513Z,101195.52
2023-11-09T21:24:44.106Z,101201.86
2023-11-09T21:27:14.837Z,101201.50
2023-11-09T21:29:44.613Z,101203.69
2023-11-09T21:32:13.808Z,101200.00
2023-11-09T21:34:43.054Z,101197.23
2023-11-09T21:37:15.184Z,101200.74
2023-11-09T21:39:45.028Z,101196.76
2023-11-09T21:42:14.504Z,101191.71
2023-11-09T21:44:46.024Z,101189.13
2023-11-09T21:47:17.893Z,101186.48
2023-11-09T21:49:48.739Z,101189.60
2023-11-09T21:52:17.972Z,101191.85
2023-11-09T21:54:47.119Z,101194.96
2023-11-09T21:57:16.565Z,101193.75
2023-11-09T21:59:46.048Z,101192.29
2023-11-09T22:02:15.351Z,101190.20
2023-11-09T22:04:44.835Z,101185.96
2023-11-09T22:07:14.158Z,101180.24
2023-11-09T22:09:43.670Z,101179.91
2023-11-09T22:12:13.156Z,101177.95
2023-11-09T22:14:42.616Z,101176.83
2023-11-09T22:17:11.846Z,101181.88
2023-11-09T22:19:41.168Z,101179.60
2023-11-09T22:22:10.572Z,101176.65
2023-11-09T22:24:39.758Z,101179.92
2023-11-09T22:27:09.119Z,101175.59
2023-11-09T22:29:38.585Z,101174.02
2023-11-09T22:32:07.896Z,101173.33
2023-11-09T22:34:37.136Z,101179.81
2023-11-09T22:37:07.299Z,101178.54
2023-11-09T22:39:38.449Z,101170.17
2023-11-09T22:42:10.947Z,101164.79
2023-11-09T22:44:40.233Z,101165.52
2023-11-09T22:47:09.624Z,101166.92
2023-11-09T22:49:39.054Z,101163.56
2023-11-09T22:52:08.507Z,101161.30
2023-11-09T22:54:37.977Z,101161.95
2023-11-09T22:57:07.828Z,101163.38
2023-11-09T22:59:37.360Z,101162.42
2023-11-09T23:02:07.165Z,101166.30
2023-11-09T23:04:36.568Z,101163.31
2023-11-09T23:07:05.789Z,101159.64
2023-11-09T23:09:35.196Z,101158.90
2023-11-09T23:12:06.191Z,101154.44
2023-11-09T23:14:35.718Z,101153.52
2023-11-09T23:17:05.050Z,101152.27
2023-11-09T23:19:34.679Z,101151.14
2023-11-09T23:22:04.498Z,101155.94
2023-11-09T23:24:33.846Z,101154.36
2023-11-09T23:27:04.852Z,101150.94
2023-11-09T23:29:35.118Z,101146.56
2023-11-09T23:32:04.612Z,101145.27
2023-11-09T23:34:33.952Z,101144.69
2023-11-09T23:37:03.226Z,101138.80
2023-11-09T23:39:32.436Z,101136.77
2023-11-09T23:42:01.654Z,101131.46
2023-11-09T23:44:31.360Z,101134.09
2023-11-09T23:47:00.992Z,101130.61
2023-11-09T23:49:30.076Z,101131.46
2023-11-09T23:51:59.533Z,101130.66
2023-11-09T23:54:29.265Z,101131.80
2023-11-09T23:56:58.477Z,101128.53
2023-11-09T23:59:27.998Z,101130.65
